Time;durP1;ratioP1;P1;durP2;ratioP2;P2;SDS_P1;SDS_P2;PMS_P1;PMS_P2;Temp;Humidity;BMP_temperature;BMP_pressure;BME280_temperature;BME280_humidity;BME280_pressure;Samples;Min_cycle;Max_cycle;Signal;HPM_P1;HPM_P2
2023/01/10 00:00:03;;;;;;;35.38;14.77;;;;;;;;;;10446418;28;20028;-72
2023/01/10 00:05:04;;;;;;;29.05;11.95;;;;;;;;;;10444987;28;20405;-77
2023/01/10 00:10:04;;;;;;;30.15;11.70;;;;;;;;;;10445226;28;20644;-71
2023/01/10 00:15:05;;;;;;;35.70;15.43;;;;;;;;;;10445443;28;20388;-75
2023/01/10 00:20:05;;;;;;;34.97;14.68;;;;;;;;;;10442927;28;20354;-73
2023/01/10 00:25:06;;;;;;;38.75;15.55;;;;;;;;;;10464124;28;20025;-70
2023/01/10 00:30:12;;;;;;;35.35;14.85;;;;;;;;;;10450811;28;20418;-77
2023/01/10 00:35:13;;;;;;;33.38;13.07;;;;;;;;;;10443635;28;20110;-70
2023/01/10 00:40:13;;;;;;;35.50;14.20;;;;;;;;;;10435839;28;20041;-70
2023/01/10 00:45:15;;;;;;;33.03;13.33;;;;;;;;;;10424524;28;20044;-70
2023/01/10 00:50:16;;;;;;;35.00;14.00;;;;;;;;;;10417600;28;20051;-70
2023/01/10 00:55:16;;;;;;;33.83;13.55;;;;;;;;;;10443444;28;20017;-71
2023/01/10 01:00:16;;;;;;;37.45;15.05;;;;;;;;;;10426655;28;20028;-72
2023/01/10 01:05:17;;;;;;;33.87;13.70;;;;;;;;;;10426162;28;20133;-71
2023/01/10 01:10:27;;;;;;;37.13;15.15;;;;;;;;;;10443591;28;20555;-75
2023/01/10 01:15:27;;;;;;;30.25;14.38;;;;;;;;;;10425736;28;20112;-70
2023/01/10 01:20:28;;;;;;;32.50;13.93;;;;;;;;;;10425243;28;20024;-72
2023/01/10 01:25:28;;;;;;;34.50;14.17;;;;;;;;;;10424930;28;20103;-74
2023/01/10 01:30:28;;;;;;;34.13;14.13;;;;;;;;;;10442955;28;20115;-74
2023/01/10 01:35:28;;;;;;;35.50;14.73;;;;;;;;;;10442747;28;20013;-74
2023/01/10 01:40:29;;;;;;;27.15;13.65;;;;;;;;;;10425019;28;20031;-73
2023/01/10 01:45:36;;;;;;;31.30;13.25;;;;;;;;;;10424332;28;20047;-74
2023/01/10 01:50:41;;;;;;;26.45;12.55;;;;;;;;;;10442401;28;20094;-69
2023/01/10 01:55:42;;;;;;;31.88;13.82;;;;;;;;;;10441008;28;20021;-71
2023/01/10 02:00:43;;;;;;;29.98;12.70;;;;;;;;;;10440841;28;20075;-72
2023/01/10 02:05:43;;;;;;;30.75;12.40;;;;;;;;;;10406737;28;20396;-69
2023/01/10 02:10:51;;;;;;;27.70;12.03;;;;;;;;;;10423633;28;20021;-69
2023/01/10 02:15:51;;;;;;;30.15;14.30;;;;;;;;;;10423814;28;20309;-72
2023/01/10 02:20:52;;;;;;;31.67;13.82;;;;;;;;;;10417427;28;20094;-71
2023/01/10 02:25:55;;;;;;;30.98;13.48;;;;;;;;;;10423261;28;20039;-70
2023/01/10 02:30:55;;;;;;;26.30;13.52;;;;;;;;;;10451187;28;20113;-72
2023/01/10 02:36:13;;;;;;;31.92;13.70;;;;;;;;;;10443223;28;20045;-73
2023/01/10 02:41:32;;;;;;;26.58;12.93;;;;;;;;;;10447787;28;20139;-74
2023/01/10 02:46:34;;;;;;;33.60;13.05;;;;;;;;;;10425758;28;20056;-76
2023/01/10 02:51:34;;;;;;;29.58;12.75;;;;;;;;;;10440397;28;20021;-75
2023/01/10 02:56:58;;;;;;;29.48;12.73;;;;;;;;;;10415125;28;20649;-75
2023/01/10 03:02:20;;;;;;;31.67;12.93;;;;;;;;;;10414627;28;20094;-73
2023/01/10 03:07:27;;;;;;;28.70;12.13;;;;;;;;;;10417840;28;20117;-72
2023/01/10 03:12:33;;;;;;;24.85;12.52;;;;;;;;;;10419712;28;20025;-76
2023/01/10 03:17:34;;;;;;;27.35;12.38;;;;;;;;;;10422230;28;20024;-70
2023/01/10 03:22:36;;;;;;;32.65;13.38;;;;;;;;;;10451491;28;20548;-72
2023/01/10 03:27:42;;;;;;;31.88;12.93;;;;;;;;;;10412652;28;20064;-72
2023/01/10 03:32:43;;;;;;;24.75;12.88;;;;;;;;;;10427105;28;20024;-74
2023/01/10 03:37:49;;;;;;;22.00;11.73;;;;;;;;;;10426958;28;20033;-71
2023/01/10 03:48:19;;;;;;;37.25;14.18;;;;;;;;;;10445578;28;20036;-73
2023/01/10 03:53:20;;;;;;;28.15;13.00;;;;;;;;;;10444548;28;20671;-74
2023/01/10 03:58:20;;;;;;;32.40;14.27;;;;;;;;;;10444763;28;20025;-75
2023/01/10 04:03:21;;;;;;;31.55;13.52;;;;;;;;;;10426648;28;20049;-76
2023/01/10 04:08:21;;;;;;;29.77;13.70;;;;;;;;;;10444171;28;20171;-72
2023/01/10 04:13:21;;;;;;;28.23;12.87;;;;;;;;;;10425873;28;20029;-75
2023/01/10 04:18:22;;;;;;;29.97;14.53;;;;;;;;;;10423378;28;20028;-73
2023/01/10 04:23:22;;;;;;;25.98;11.60;;;;;;;;;;10425883;28;20017;-76
2023/01/10 04:28:22;;;;;;;33.25;14.45;;;;;;;;;;10425457;28;20013;-75
2023/01/10 04:33:22;;;;;;;31.52;13.93;;;;;;;;;;10435373;28;20232;-69
2023/01/10 04:38:23;;;;;;;32.08;14.20;;;;;;;;;;10448798;28;20017;-74
2023/01/10 04:43:23;;;;;;;35.42;14.80;;;;;;;;;;10443409;28;20518;-72
2023/01/10 04:48:26;;;;;;;33.55;14.43;;;;;;;;;;10434725;28;20155;-75
2023/01/10 04:53:26;;;;;;;32.47;14.82;;;;;;;;;;10424696;28;20403;-76
2023/01/10 04:58:27;;;;;;;29.83;13.85;;;;;;;;;;10442467;28;20032;-77
2023/01/10 05:03:28;;;;;;;28.35;11.65;;;;;;;;;;10423786;28;20455;-74
2023/01/10 05:08:29;;;;;;;25.90;11.57;;;;;;;;;;10426275;28;20441;-77
2023/01/10 05:13:29;;;;;;;33.93;12.67;;;;;;;;;;10463301;28;20074;-70
2023/01/10 05:18:29;;;;;;;28.45;13.65;;;;;;;;;;10430812;28;20028;-79
2023/01/10 05:23:30;;;;;;;29.17;12.98;;;;;;;;;;10418618;28;20031;-67
2023/01/10 05:28:30;;;;;;;33.83;14.53;;;;;;;;;;10426637;28;20465;-79
2023/01/10 05:33:30;;;;;;;33.17;14.50;;;;;;;;;;10448247;28;20119;-76
2023/01/10 05:38:31;;;;;;;30.17;13.95;;;;;;;;;;10446467;28;20111;-75
2023/01/10 05:43:31;;;;;;;27.20;12.85;;;;;;;;;;10433477;28;20041;-78
2023/01/10 05:48:32;;;;;;;25.37;13.40;;;;;;;;;;10421405;28;20391;-75
2023/01/10 05:53:32;;;;;;;26.00;10.43;;;;;;;;;;10421613;28;20263;-75
2023/01/10 05:58:32;;;;;;;27.30;11.37;;;;;;;;;;10439121;28;20029;-76
2023/01/10 06:03:33;;;;;;;23.27;11.05;;;;;;;;;;10435069;28;20037;-76
2023/01/10 06:08:35;;;;;;;22.98;11.65;;;;;;;;;;10381642;28;20157;-75
2023/01/10 06:13:36;;;;;;;23.55;12.18;;;;;;;;;;10423026;28;20021;-70
2023/01/10 06:18:36;;;;;;;30.90;13.63;;;;;;;;;;10423021;28;20024;-76
2023/01/10 06:23:38;;;;;;;31.15;14.38;;;;;;;;;;10395311;28;20025;-73
2023/01/10 06:28:40;;;;;;;25.88;12.45;;;;;;;;;;10440776;28;20100;-77
2023/01/10 06:33:43;;;;;;;21.13;10.13;;;;;;;;;;10423023;28;20546;-76
2023/01/10 06:38:43;;;;;;;27.15;11.70;;;;;;;;;;10422473;28;20025;-72
2023/01/10 06:43:44;;;;;;;29.15;12.35;;;;;;;;;;10422552;28;20560;-77
2023/01/10 06:48:45;;;;;;;30.85;12.30;;;;;;;;;;10422727;28;20028;-76
2023/01/10 06:53:45;;;;;;;24.57;12.50;;;;;;;;;;10449517;28;20494;-74
2023/01/10 06:58:48;;;;;;;31.92;14.32;;;;;;;;;;10465556;28;20033;-76
2023/01/10 07:03:48;;;;;;;31.30;13.13;;;;;;;;;;10466859;28;20056;-73
2023/01/10 07:08:49;;;;;;;30.20;13.30;;;;;;;;;;10416369;28;20040;-74
2023/01/10 07:13:52;;;;;;;30.63;13.13;;;;;;;;;;10442656;28;20029;-74
2023/01/10 07:18:52;;;;;;;33.58;15.85;;;;;;;;;;10425601;28;20016;-76
2023/01/10 07:23:52;;;;;;;30.77;14.57;;;;;;;;;;10429447;28;20032;-74
2023/01/10 07:28:53;;;;;;;36.33;17.10;;;;;;;;;;10429582;28;20090;-76
2023/01/10 07:33:54;;;;;;;28.85;13.30;;;;;;;;;;10429622;28;20602;-77
2023/01/10 07:38:55;;;;;;;30.40;14.13;;;;;;;;;;10428190;28;20113;-74
2023/01/10 07:43:55;;;;;;;36.83;16.10;;;;;;;;;;10440030;28;20111;-72
2023/01/10 07:48:55;;;;;;;27.40;12.55;;;;;;;;;;10426639;28;20048;-75
2023/01/10 07:53:55;;;;;;;29.35;12.52;;;;;;;;;;10428377;28;20824;-73
2023/01/10 07:58:57;;;;;;;29.20;12.33;;;;;;;;;;10428816;28;20532;-76
2023/01/10 08:03:57;;;;;;;32.22;13.90;;;;;;;;;;10426809;28;20152;-74
2023/01/10 08:08:58;;;;;;;31.30;14.65;;;;;;;;;;10425622;28;20029;-73
2023/01/10 08:13:58;;;;;;;36.03;14.93;;;;;;;;;;10425202;28;20020;-76
2023/01/10 08:18:58;;;;;;;39.67;17.77;;;;;;;;;;10455197;28;20452;-74
2023/01/10 08:23:59;;;;;;;30.17;13.45;;;;;;;;;;10452675;28;20116;-73
2023/01/10 08:29:00;;;;;;;29.70;12.57;;;;;;;;;;10427620;28;20174;-75
2023/01/10 08:34:00;;;;;;;24.00;10.88;;;;;;;;;;10427977;28;20025;-72
2023/01/10 08:39:00;;;;;;;17.80;9.73;;;;;;;;;;10446188;28;20059;-72
2023/01/10 08:44:00;;;;;;;23.00;10.70;;;;;;;;;;10427256;28;20032;-72
2023/01/10 08:49:02;;;;;;;26.83;13.30;;;;;;;;;;10414586;28;20030;-76
2023/01/10 08:54:02;;;;;;;50.72;21.17;;;;;;;;;;10410360;28;20013;-76
2023/01/10 08:59:02;;;;;;;26.38;12.75;;;;;;;;;;10426357;28;20025;-73
2023/01/10 09:04:04;;;;;;;24.15;12.68;;;;;;;;;;10425962;28;20069;-71
2023/01/10 09:09:04;;;;;;;44.65;22.35;;;;;;;;;;10426538;28;20028;-71
2023/01/10 09:14:06;;;;;;;52.60;22.87;;;;;;;;;;10439739;28;20017;-75
2023/01/10 09:19:06;;;;;;;50.55;24.00;;;;;;;;;;10460811;28;20259;-76
2023/01/10 09:24:06;;;;;;;56.80;26.35;;;;;;;;;;10428663;28;20043;-74
2023/01/10 09:29:07;;;;;;;61.35;28.75;;;;;;;;;;10428688;28;20021;-71
2023/01/10 09:34:07;;;;;;;69.32;31.15;;;;;;;;;;10425729;28;20127;-76
2023/01/10 09:39:07;;;;;;;57.13;27.52;;;;;;;;;;10443169;28;20043;-72
2023/01/10 09:44:24;;;;;;;60.47;26.83;;;;;;;;;;10425304;28;20033;-75
2023/01/10 09:49:30;;;;;;;43.78;18.50;;;;;;;;;;10425802;28;20013;-77
2023/01/10 09:54:34;;;;;;;43.28;19.88;;;;;;;;;;10451840;28;20066;-73
2023/01/10 09:59:38;;;;;;;40.85;19.33;;;;;;;;;;10458634;28;20588;-69
2023/01/10 10:04:39;;;;;;;48.40;22.52;;;;;;;;;;10424735;28;20451;-75
2023/01/10 10:09:40;;;;;;;77.45;30.48;;;;;;;;;;10425304;28;20029;-70
2023/01/10 10:14:47;;;;;;;74.97;32.55;;;;;;;;;;10441235;28;20013;-75
2023/01/10 10:19:50;;;;;;;70.80;32.15;;;;;;;;;;10440742;28;20082;-72
2023/01/10 10:25:00;;;;;;;72.13;32.78;;;;;;;;;;10441480;28;20112;-73
2023/01/10 10:30:00;;;;;;;84.10;34.92;;;;;;;;;;10427877;28;20406;-74
2023/01/10 10:35:02;;;;;;;71.90;32.88;;;;;;;;;;10431883;28;20031;-73
2023/01/10 10:40:04;;;;;;;67.65;32.65;;;;;;;;;;10431598;28;20025;-71
2023/01/10 10:45:14;;;;;;;79.03;31.60;;;;;;;;;;10448000;28;20036;-73
2023/01/10 10:50:14;;;;;;;70.95;32.08;;;;;;;;;;10427790;28;20017;-74
2023/01/10 10:55:16;;;;;;;77.82;32.15;;;;;;;;;;10431955;28;20479;-75
2023/01/10 11:00:18;;;;;;;73.00;32.47;;;;;;;;;;10406174;28;20469;-74
2023/01/10 11:05:21;;;;;;;69.95;29.38;;;;;;;;;;10430301;28;20041;-77
2023/01/10 11:10:35;;;;;;;71.63;31.05;;;;;;;;;;10431112;28;20031;-74
2023/01/10 11:15:40;;;;;;;73.30;32.08;;;;;;;;;;10445011;28;20045;-78
2023/01/10 11:20:47;;;;;;;66.18;29.88;;;;;;;;;;10447044;28;20021;-76
2023/01/10 11:25:48;;;;;;;76.22;32.38;;;;;;;;;;10443984;28;20036;-77
2023/01/10 11:30:51;;;;;;;65.25;29.05;;;;;;;;;;10475480;28;20021;-77
2023/01/10 11:35:59;;;;;;;68.53;31.05;;;;;;;;;;10442516;28;20029;-70
2023/01/10 11:41:01;;;;;;;71.35;30.40;;;;;;;;;;10427231;28;20017;-70
2023/01/10 11:46:11;;;;;;;62.70;29.10;;;;;;;;;;10425761;28;20032;-76
2023/01/10 11:51:25;;;;;;;71.63;29.77;;;;;;;;;;10454267;28;20056;-75
2023/01/10 11:56:27;;;;;;;81.05;33.63;;;;;;;;;;10429947;28;20025;-72
2023/01/10 12:01:31;;;;;;;80.10;32.80;;;;;;;;;;10442057;28;20116;-72
2023/01/10 12:06:32;;;;;;;87.60;37.85;;;;;;;;;;10443916;28;20049;-72
2023/01/10 12:11:34;;;;;;;78.88;34.17;;;;;;;;;;10425885;28;20078;-71
2023/01/10 12:16:34;;;;;;;67.47;31.88;;;;;;;;;;10428398;28;20020;-75
2023/01/10 12:21:39;;;;;;;68.93;31.63;;;;;;;;;;10428455;28;20083;-72
2023/01/10 12:26:40;;;;;;;79.18;33.63;;;;;;;;;;10427767;28;20121;-72
2023/01/10 12:31:40;;;;;;;65.95;28.73;;;;;;;;;;10444315;28;20021;-71
2023/01/10 12:36:43;;;;;;;65.23;28.97;;;;;;;;;;10446021;28;20032;-73
2023/01/10 12:47:23;;;;;;;59.65;27.85;;;;;;;;;;10444945;28;20410;-72
2023/01/10 12:52:57;;;;;;;63.58;26.70;;;;;;;;;;10426207;28;20139;-72
2023/01/10 12:58:00;;;;;;;51.05;23.83;;;;;;;;;;10393661;28;20048;-75
2023/01/10 13:03:02;;;;;;;49.47;22.60;;;;;;;;;;10425562;28;20127;-74
2023/01/10 13:08:09;;;;;;;54.55;23.42;;;;;;;;;;10440253;28;20045;-70
2023/01/10 13:13:21;;;;;;;60.15;23.55;;;;;;;;;;10420624;28;20047;-70
2023/01/10 13:18:29;;;;;;;51.60;24.08;;;;;;;;;;10414585;28;20025;-70
2023/01/10 13:23:32;;;;;;;52.20;23.58;;;;;;;;;;10453579;28;20089;-72
2023/01/10 13:28:33;;;;;;;54.90;24.55;;;;;;;;;;10440028;28;20025;-73
2023/01/10 13:33:39;;;;;;;53.50;24.38;;;;;;;;;;10449378;28;20029;-72
2023/01/10 13:38:56;;;;;;;53.80;22.42;;;;;;;;;;10433932;28;20075;-71
2023/01/10 13:44:10;;;;;;;57.88;23.95;;;;;;;;;;10448197;28;20026;-76
2023/01/10 13:49:10;;;;;;;43.38;20.08;;;;;;;;;;10397006;28;20153;-72
2023/01/10 13:54:17;;;;;;;42.13;19.27;;;;;;;;;;10398526;28;20505;-69
2023/01/10 14:05:02;;;;;;;46.00;21.55;;;;;;;;;;10439299;28;20423;-71
2023/01/10 14:10:22;;;;;;;43.58;19.25;;;;;;;;;;10424251;28;20518;-70
2023/01/10 14:15:24;;;;;;;34.78;16.77;;;;;;;;;;10411006;28;20029;-72
2023/01/10 14:20:25;;;;;;;39.60;18.73;;;;;;;;;;10412112;28;20028;-76
2023/01/10 14:25:26;;;;;;;30.20;16.48;;;;;;;;;;10423957;28;20120;-74
2023/01/10 14:30:34;;;;;;;35.25;15.88;;;;;;;;;;10434504;28;20033;-71
2023/01/10 14:35:37;;;;;;;31.45;14.98;;;;;;;;;;10436489;28;20615;-71
2023/01/10 14:40:41;;;;;;;28.20;14.65;;;;;;;;;;10415440;28;20048;-73
2023/01/10 14:45:47;;;;;;;25.25;12.63;;;;;;;;;;10439079;28;20140;-77
2023/01/10 14:50:47;;;;;;;22.33;12.18;;;;;;;;;;10423780;28;20032;-77
2023/01/10 14:55:47;;;;;;;21.33;10.57;;;;;;;;;;10415700;28;20112;-78
2023/01/10 15:00:49;;;;;;;23.35;12.27;;;;;;;;;;10424641;28;20047;-79
2023/01/10 15:05:51;;;;;;;16.23;9.23;;;;;;;;;;10439141;28;20044;-78
2023/01/10 15:10:53;;;;;;;13.25;6.88;;;;;;;;;;10434056;28;20021;-80
2023/01/10 15:15:54;;;;;;;10.68;5.95;;;;;;;;;;10415708;28;20025;-76
2023/01/10 15:20:55;;;;;;;10.88;5.80;;;;;;;;;;10440769;28;20471;-79
2023/01/10 15:25:58;;;;;;;8.35;4.60;;;;;;;;;;10432742;28;20036;-79
2023/01/10 15:30:59;;;;;;;7.22;4.22;;;;;;;;;;10432340;28;20033;-76
2023/01/10 15:36:07;;;;;;;7.90;3.67;;;;;;;;;;10439145;28;20095;-76
2023/01/10 15:41:07;;;;;;;4.57;2.75;;;;;;;;;;10466398;28;20025;-76
2023/01/10 15:46:15;;;;;;;6.53;2.28;;;;;;;;;;10465104;28;20057;-72
2023/01/10 15:51:45;;;;;;;2.92;1.77;;;;;;;;;;10456458;28;20561;-74
2023/01/10 15:56:52;;;;;;;5.28;3.20;;;;;;;;;;10421492;28;20131;-73
2023/01/10 16:01:59;;;;;;;3.50;2.63;;;;;;;;;;10448505;28;20079;-76
2023/01/10 16:07:18;;;;;;;3.70;2.28;;;;;;;;;;10430400;28;20077;-77
2023/01/10 16:17:45;;;;;;;6.00;3.88;;;;;;;;;;10450298;28;20483;-74
2023/01/10 16:22:46;;;;;;;6.72;3.92;;;;;;;;;;10441275;28;20025;-80
2023/01/10 16:27:48;;;;;;;6.50;3.38;;;;;;;;;;10416084;28;20036;-78
2023/01/10 16:32:49;;;;;;;5.18;3.92;;;;;;;;;;10401843;28;20522;-74
2023/01/10 16:37:53;;;;;;;7.13;4.43;;;;;;;;;;10437115;28;20028;-75
2023/01/10 16:48:13;;;;;;;7.20;4.20;;;;;;;;;;10457257;28;20029;-81
2023/01/10 16:53:14;;;;;;;4.43;3.38;;;;;;;;;;10441123;28;20487;-82
2023/01/10 16:58:15;;;;;;;4.50;2.47;;;;;;;;;;10447069;28;20041;-79
2023/01/10 17:03:17;;;;;;;2.65;1.88;;;;;;;;;;10437826;28;20036;-74
2023/01/10 17:08:25;;;;;;;4.18;2.00;;;;;;;;;;10412976;28;20414;-79
2023/01/10 17:13:30;;;;;;;3.80;1.67;;;;;;;;;;10436861;28;20083;-74
2023/01/10 17:18:30;;;;;;;6.10;2.50;;;;;;;;;;10426519;28;20038;-76
2023/01/10 17:23:30;;;;;;;3.53;2.40;;;;;;;;;;10421632;28;20032;-76
2023/01/10 17:28:31;;;;;;;8.67;3.93;;;;;;;;;;10441748;28;20036;-77
2023/01/10 17:33:32;;;;;;;5.60;3.10;;;;;;;;;;10453481;28;20338;-71
2023/01/10 17:38:33;;;;;;;5.95;2.78;;;;;;;;;;10438564;28;20372;-78
2023/01/10 17:43:33;;;;;;;5.43;2.90;;;;;;;;;;10445560;28;20090;-79
2023/01/10 17:48:34;;;;;;;4.77;2.97;;;;;;;;;;10436078;28;20041;-78
2023/01/10 17:53:37;;;;;;;5.45;2.97;;;;;;;;;;10436990;28;20051;-79
2023/01/10 17:58:37;;;;;;;8.55;3.42;;;;;;;;;;10439006;28;20121;-78
2023/01/10 18:03:38;;;;;;;4.38;2.45;;;;;;;;;;10443409;28;20052;-74
2023/01/10 18:08:38;;;;;;;4.38;2.30;;;;;;;;;;10456086;28;20048;-81
2023/01/10 18:13:39;;;;;;;4.03;1.90;;;;;;;;;;10428891;28;20029;-80
2023/01/10 18:18:39;;;;;;;4.05;2.35;;;;;;;;;;10441451;28;20651;-79
2023/01/10 18:23:41;;;;;;;2.60;1.77;;;;;;;;;;10421720;28;20039;-80
2023/01/10 18:28:42;;;;;;;2.10;1.15;;;;;;;;;;10431899;28;20185;-75
2023/01/10 18:33:46;;;;;;;4.45;1.30;;;;;;;;;;10442100;28;20025;-76
2023/01/10 18:38:47;;;;;;;3.10;1.58;;;;;;;;;;10441104;28;20047;-76
2023/01/10 18:43:47;;;;;;;4.28;2.08;;;;;;;;;;10443255;28;20051;-76
2023/01/10 18:49:13;;;;;;;3.58;1.92;;;;;;;;;;10430063;28;20098;-78
2023/01/10 18:54:13;;;;;;;2.17;1.30;;;;;;;;;;10442046;28;20040;-74
2023/01/10 18:59:14;;;;;;;1.77;1.45;;;;;;;;;;10450389;28;20529;-78
2023/01/10 19:04:14;;;;;;;1.88;1.60;;;;;;;;;;10451551;28;20354;-80
2023/01/10 19:09:14;;;;;;;1.88;1.77;;;;;;;;;;10432008;28;20032;-75
2023/01/10 19:14:15;;;;;;;3.20;1.45;;;;;;;;;;10458826;28;20021;-72
2023/01/10 19:19:16;;;;;;;2.20;2.00;;;;;;;;;;10440049;28;20037;-75
2023/01/10 19:24:24;;;;;;;3.97;1.98;;;;;;;;;;10408391;28;20022;-80
2023/01/10 19:29:24;;;;;;;3.80;2.33;;;;;;;;;;10456339;28;20033;-75
2023/01/10 19:34:24;;;;;;;2.40;1.92;;;;;;;;;;10417412;28;20025;-76
2023/01/10 19:39:25;;;;;;;2.13;1.55;;;;;;;;;;10422500;28;20033;-73
2023/01/10 19:44:25;;;;;;;2.13;1.35;;;;;;;;;;10391476;28;20034;-74
2023/01/10 19:49:26;;;;;;;3.70;2.20;;;;;;;;;;10434367;28;20047;-81
2023/01/10 19:54:30;;;;;;;2.45;1.85;;;;;;;;;;10430710;28;20266;-76
2023/01/10 19:59:31;;;;;;;2.80;1.20;;;;;;;;;;10437156;28;20070;-73
2023/01/10 20:04:32;;;;;;;4.95;1.50;;;;;;;;;;10449902;28;20095;-78
2023/01/10 20:09:33;;;;;;;1.67;1.30;;;;;;;;;;10426720;28;20040;-80
2023/01/10 20:14:34;;;;;;;1.98;1.42;;;;;;;;;;10445094;28;20259;-75
2023/01/10 20:19:34;;;;;;;2.88;1.30;;;;;;;;;;10434263;28;20090;-78
2023/01/10 20:24:35;;;;;;;1.67;1.42;;;;;;;;;;10441911;28;20029;-76
2023/01/10 20:29:41;;;;;;;1.97;1.20;;;;;;;;;;10412813;28;20505;-74
2023/01/10 20:34:43;;;;;;;4.53;1.40;;;;;;;;;;10450848;28;20017;-77
2023/01/10 20:39:46;;;;;;;1.88;1.38;;;;;;;;;;10429695;28;20056;-80
2023/01/10 20:44:46;;;;;;;2.25;1.42;;;;;;;;;;10430017;28;20021;-79
2023/01/10 20:49:47;;;;;;;1.97;1.50;;;;;;;;;;10419517;28;20519;-72
2023/01/10 20:54:48;;;;;;;2.30;1.33;;;;;;;;;;10462197;28;20036;-71
2023/01/10 20:59:49;;;;;;;2.75;1.52;;;;;;;;;;10457397;28;20021;-76
2023/01/10 21:04:52;;;;;;;3.13;1.60;;;;;;;;;;10441045;28;20627;-75
2023/01/10 21:09:53;;;;;;;3.15;1.70;;;;;;;;;;10419775;28;20086;-75
2023/01/10 21:14:53;;;;;;;4.18;1.60;;;;;;;;;;10411275;28;20030;-80
2023/01/10 21:19:53;;;;;;;6.60;1.53;;;;;;;;;;10419179;28;20028;-75
2023/01/10 21:24:54;;;;;;;1.75;1.35;;;;;;;;;;10427971;28;20501;-75
2023/01/10 21:29:59;;;;;;;1.02;0.57;;;;;;;;;;10426638;28;20533;-76
2023/01/10 21:34:59;;;;;;;1.73;1.30;;;;;;;;;;10441903;28;20036;-78
2023/01/10 21:40:01;;;;;;;1.17;0.80;;;;;;;;;;10412818;28;20017;-79
2023/01/10 21:45:02;;;;;;;3.03;1.10;;;;;;;;;;10426415;28;20025;-74
2023/01/10 21:50:03;;;;;;;1.40;1.30;;;;;;;;;;10445127;28;20029;-79
2023/01/10 21:55:04;;;;;;;1.33;0.90;;;;;;;;;;10428542;28;20032;-79
2023/01/10 22:00:07;;;;;;;1.27;0.80;;;;;;;;;;10446242;28;20056;-78
2023/01/10 22:05:09;;;;;;;0.65;0.60;;;;;;;;;;10431030;28;20516;-76
2023/01/10 22:10:10;;;;;;;1.33;0.68;;;;;;;;;;10402506;28;20113;-75
2023/01/10 22:15:11;;;;;;;1.75;0.70;;;;;;;;;;10383586;28;20018;-75
2023/01/10 22:20:11;;;;;;;0.40;0.40;;;;;;;;;;10400175;28;20030;-73
2023/01/10 22:25:11;;;;;;;0.40;0.30;;;;;;;;;;10383839;28;20033;-78
2023/01/10 22:30:12;;;;;;;1.02;0.57;;;;;;;;;;10401102;28;20801;-81
2023/01/10 22:35:13;;;;;;;1.13;0.75;;;;;;;;;;10402425;28;20017;-70
2023/01/10 22:40:13;;;;;;;1.95;0.73;;;;;;;;;;10422731;28;20022;-70
2023/01/10 22:45:14;;;;;;;1.23;0.73;;;;;;;;;;10402618;28;20455;-71
2023/01/10 22:50:15;;;;;;;1.25;0.70;;;;;;;;;;10409167;28;20033;-80
2023/01/10 22:55:16;;;;;;;0.98;0.75;;;;;;;;;;10384050;28;20018;-75
2023/01/10 23:00:17;;;;;;;1.40;1.00;;;;;;;;;;10400924;28;20037;-73
2023/01/10 23:05:17;;;;;;;1.65;0.93;;;;;;;;;;10392259;28;20143;-78
2023/01/10 23:10:18;;;;;;;0.40;0.40;;;;;;;;;;10418074;28;20063;-76
2023/01/10 23:15:19;;;;;;;0.30;0.30;;;;;;;;;;10425983;28;20035;-75
2023/01/10 23:20:22;;;;;;;1.42;0.70;;;;;;;;;;10427050;28;20029;-78
2023/01/10 23:25:22;;;;;;;2.67;0.65;;;;;;;;;;10415052;28;20446;-80
2023/01/10 23:30:25;;;;;;;1.95;1.30;;;;;;;;;;10441161;28;20028;-81
2023/01/10 23:35:25;;;;;;;4.80;1.83;;;;;;;;;;10425394;28;20039;-75
2023/01/10 23:40:26;;;;;;;2.10;1.92;;;;;;;;;;10448543;28;20414;-77
2023/01/10 23:45:26;;;;;;;5.65;2.25;;;;;;;;;;10431352;28;20507;-78
2023/01/10 23:50:27;;;;;;;3.83;3.00;;;;;;;;;;10450610;28;20090;-79
2023/01/10 23:55:28;;;;;;;3.30;2.53;;;;;;;;;;10430781;28;20027;-78
